Time;durP1;ratioP1;P1;durP2;ratioP2;P2;SDS_P1;SDS_P2;PMS_P1;PMS_P2;Temp;Humidity;BMP_temperature;BMP_pressure;BME280_temperature;BME280_humidity;BME280_pressure;Samples;Min_cycle;Max_cycle;Signal;HPM_P1;HPM_P2
2024/02/05 00:00:34;;;;;;;2.10;1.67;;;;;;;7.65;100.00;100374.28;5003930;28;20212;-72
2024/02/05 00:03:01;;;;;;;1.30;1.20;;;;;;;7.75;100.00;100379.22;5006978;28;20213;-72
2024/02/05 00:05:29;;;;;;;1.30;1.07;;;;;;;7.85;100.00;100376.28;5006930;28;20662;-71
2024/02/05 00:07:55;;;;;;;3.60;1.60;;;;;;;7.94;100.00;100368.38;5007862;28;20207;-72
2024/02/05 00:10:23;;;;;;;1.50;1.40;;;;;;;8.09;100.00;100363.41;5007697;28;20210;-72
2024/02/05 00:12:49;;;;;;;1.67;1.57;;;;;;;8.16;100.00;100368.16;5009110;28;20200;-73
2024/02/05 00:15:15;;;;;;;1.20;1.10;;;;;;;8.24;100.00;100360.28;5007081;28;20211;-72
2024/02/05 00:17:43;;;;;;;1.50;1.40;;;;;;;8.37;100.00;100361.16;5003351;28;20233;-72
2024/02/05 00:20:10;;;;;;;1.60;1.50;;;;;;;8.43;100.00;100358.03;5024724;28;20203;-72
2024/02/05 00:22:37;;;;;;;1.70;1.33;;;;;;;8.57;100.00;100361.25;5007800;28;20738;-72
2024/02/05 00:25:04;;;;;;;1.53;1.43;;;;;;;8.65;100.00;100351.75;5007208;28;20208;-72
2024/02/05 00:27:31;;;;;;;1.90;1.70;;;;;;;8.73;100.00;100348.31;5004571;28;20224;-72
2024/02/05 00:29:57;;;;;;;1.53;1.43;;;;;;;8.79;100.00;100347.03;5009528;28;20295;-72
2024/02/05 00:32:24;;;;;;;1.70;1.60;;;;;;;8.84;100.00;100355.53;5006237;28;20196;-71
2024/02/05 00:34:50;;;;;;;1.50;1.40;;;;;;;8.92;100.00;100354.72;5008664;28;20232;-72
2024/02/05 00:37:17;;;;;;;1.53;1.43;;;;;;;8.97;100.00;100344.00;5006383;28;20219;-72
2024/02/05 00:39:44;;;;;;;1.40;1.30;;;;;;;9.03;100.00;100336.66;5005309;28;20201;-72
2024/02/05 00:42:11;;;;;;;2.33;1.63;;;;;;;9.09;100.00;100336.16;5002105;28;20204;-72
2024/02/05 00:44:37;;;;;;;1.87;1.60;;;;;;;9.13;100.00;100333.66;5006843;28;20215;-72
2024/02/05 00:47:04;;;;;;;1.70;1.60;;;;;;;9.19;100.00;100338.41;5020333;28;20224;-73
2024/02/05 00:49:30;;;;;;;1.40;1.30;;;;;;;9.24;100.00;100327.69;5004704;28;20197;-72
2024/02/05 00:51:57;;;;;;;1.57;1.40;;;;;;;9.28;100.00;100322.53;5005241;28;20215;-72
2024/02/05 00:54:23;;;;;;;1.70;1.60;;;;;;;9.31;100.00;100321.91;5006766;28;20599;-71
2024/02/05 00:56:51;;;;;;;1.37;1.27;;;;;;;9.32;100.00;100316.28;5006700;28;20274;-73
2024/02/05 00:59:17;;;;;;;1.47;1.37;;;;;;;9.36;100.00;100319.03;5005878;28;20196;-73
2024/02/05 01:01:45;;;;;;;1.50;1.40;;;;;;;9.37;100.00;100321.34;5006230;28;20258;-72
2024/02/05 01:04:11;;;;;;;2.67;1.47;;;;;;;9.38;100.00;100327.41;5005762;28;20913;-72
2024/02/05 01:06:39;;;;;;;1.13;1.10;;;;;;;9.39;100.00;100318.41;5006525;28;20220;-72
2024/02/05 01:09:09;;;;;;;1.30;1.20;;;;;;;9.40;100.00;100328.63;5005521;28;20204;-73
2024/02/05 01:11:36;;;;;;;1.40;1.30;;;;;;;9.43;100.00;100317.41;5006507;28;20627;-72
2024/02/05 01:14:04;;;;;;;1.23;1.13;;;;;;;9.44;100.00;100326.13;5003885;28;20215;-73
2024/02/05 01:16:30;;;;;;;1.20;1.10;;;;;;;9.44;100.00;100307.66;5006069;28;20850;-72
2024/02/05 01:18:57;;;;;;;1.00;1.00;;;;;;;9.46;100.00;100318.63;5005891;28;20630;-72
2024/02/05 01:21:23;;;;;;;0.87;0.87;;;;;;;9.49;100.00;100313.53;5008552;28;20228;-73
2024/02/05 01:23:49;;;;;;;1.37;1.27;;;;;;;9.50;100.00;100304.50;5004451;28;20224;-72
2024/02/05 01:26:16;;;;;;;1.10;1.10;;;;;;;9.52;100.00;100296.28;5005178;28;20223;-72
2024/02/05 01:28:42;;;;;;;1.37;1.00;;;;;;;9.50;100.00;100307.16;5003744;28;20208;-72
2024/02/05 01:31:10;;;;;;;1.10;1.00;;;;;;;9.52;100.00;100299.69;5004815;28;20203;-72
2024/02/05 01:33:37;;;;;;;1.13;1.10;;;;;;;9.54;100.00;100302.78;5005307;28;20208;-73
2024/02/05 01:36:05;;;;;;;1.33;1.03;;;;;;;9.55;100.00;100304.31;5002934;28;20855;-72
2024/02/05 01:38:32;;;;;;;1.20;1.10;;;;;;;9.57;100.00;100296.09;5005042;28;20588;-72
2024/02/05 01:40:59;;;;;;;1.20;1.10;;;;;;;9.55;100.00;100308.81;5004256;28;20286;-73
2024/02/05 01:43:25;;;;;;;1.40;1.30;;;;;;;9.57;100.00;100311.91;5005627;28;20212;-72
2024/02/05 01:45:52;;;;;;;1.00;0.90;;;;;;;9.59;100.00;100307.06;5003543;28;20224;-72
2024/02/05 01:48:23;;;;;;;1.70;1.20;;;;;;;9.61;100.00;100299.59;5004182;28;20209;-72
2024/02/05 01:50:51;;;;;;;1.10;1.00;;;;;;;9.60;100.00;100303.31;5005773;28;20691;-72
2024/02/05 01:53:18;;;;;;;1.00;1.00;;;;;;;9.61;100.00;100297.72;5005465;28;20224;-73
2024/02/05 01:55:46;;;;;;;1.17;1.07;;;;;;;9.61;100.00;100297.72;5007967;28;20827;-71
2024/02/05 01:58:13;;;;;;;1.13;1.03;;;;;;;9.60;100.00;100300.69;5005065;28;20200;-72
2024/02/05 02:00:41;;;;;;;2.90;1.10;;;;;;;9.62;100.00;100309.06;5020068;28;20204;-72
2024/02/05 02:03:07;;;;;;;1.43;1.33;;;;;;;9.62;100.00;100306.44;5004119;28;20623;-73
2024/02/05 02:05:35;;;;;;;1.50;1.40;;;;;;;9.62;100.00;100296.63;5004796;28;20198;-73
2024/02/05 02:08:04;;;;;;;1.30;1.20;;;;;;;9.62;100.00;100299.28;5019164;28;20552;-72
2024/02/05 02:10:31;;;;;;;1.23;1.13;;;;;;;9.64;100.00;100304.97;5004150;28;20208;-72
2024/02/05 02:12:58;;;;;;;1.50;1.00;;;;;;;9.66;100.00;100304.66;5004817;28;20208;-72
2024/02/05 02:15:24;;;;;;;1.20;1.10;;;;;;;9.66;100.00;100302.03;5004505;28;20224;-72
2024/02/05 02:17:53;;;;;;;1.00;1.00;;;;;;;9.67;100.00;100304.34;5005065;28;20229;-73
2024/02/05 02:20:21;;;;;;;1.03;1.03;;;;;;;9.68;100.00;100299.84;5005514;28;20208;-72
2024/02/05 02:22:57;;;;;;;2.10;1.20;;;;;;;9.67;100.00;100285.88;5005834;28;20848;-72
2024/02/05 02:25:24;;;;;;;2.60;1.10;;;;;;;9.68;100.00;100303.25;5006182;28;20191;-72
2024/02/05 02:27:51;;;;;;;0.90;0.90;;;;;;;9.68;100.00;100286.66;5002103;28;20224;-72
2024/02/05 02:30:19;;;;;;;1.07;0.90;;;;;;;9.68;100.00;100289.31;5003668;28;20200;-73
2024/02/05 02:32:57;;;;;;;1.13;1.00;;;;;;;9.68;100.00;100294.56;5005571;28;20196;-72
2024/02/05 02:35:29;;;;;;;2.40;1.13;;;;;;;9.67;100.00;100290.38;5004423;28;20205;-72
2024/02/05 02:38:00;;;;;;;0.80;0.80;;;;;;;9.67;100.00;100285.09;5004256;28;20727;-73
2024/02/05 02:40:31;;;;;;;0.90;0.90;;;;;;;9.68;100.00;100297.97;5000995;28;21051;-72
2024/02/05 02:43:00;;;;;;;0.90;0.90;;;;;;;9.67;100.00;100295.66;5002045;28;20590;-72
2024/02/05 02:45:28;;;;;;;0.73;0.73;;;;;;;9.68;100.00;100294.56;5004865;28;20208;-73
2024/02/05 02:47:55;;;;;;;0.80;0.80;;;;;;;9.67;100.00;100287.75;5004550;28;20731;-72
2024/02/05 02:50:22;;;;;;;0.90;0.90;;;;;;;9.67;100.00;100293.00;5004248;28;20196;-73
2024/02/05 02:52:48;;;;;;;0.60;0.60;;;;;;;9.66;100.00;100283.56;5001388;28;20209;-72
2024/02/05 02:55:15;;;;;;;0.80;0.80;;;;;;;9.66;100.00;100286.19;5003720;28;20208;-73
2024/02/05 02:57:43;;;;;;;0.70;0.70;;;;;;;9.65;100.00;100285.44;5005333;28;20222;-73
2024/02/05 03:00:12;;;;;;;0.83;0.83;;;;;;;9.66;100.00;100283.56;5002042;28;20819;-73
2024/02/05 03:02:38;;;;;;;0.87;0.87;;;;;;;9.66;100.00;100289.63;5005856;28;20675;-73
2024/02/05 03:05:06;;;;;;;1.73;0.80;;;;;;;9.66;100.00;100288.84;5003562;28;20223;-72
2024/02/05 03:07:34;;;;;;;0.80;0.80;;;;;;;9.67;100.00;100293.78;5004263;28;20863;-73
2024/02/05 03:10:01;;;;;;;0.80;0.80;;;;;;;9.67;100.00;100290.38;5002854;28;20212;-72
2024/02/05 03:12:27;;;;;;;0.60;0.60;;;;;;;9.65;100.00;100285.44;5003348;28;20205;-72
2024/02/05 03:14:55;;;;;;;1.17;1.07;;;;;;;9.66;100.00;100297.53;5009141;28;20279;-73
2024/02/05 03:17:21;;;;;;;0.80;0.80;;;;;;;9.67;100.00;100296.44;5005790;28;20224;-72
2024/02/05 03:19:47;;;;;;;0.67;0.67;;;;;;;9.67;100.00;100293.00;5005984;28;20575;-72
2024/02/05 03:22:14;;;;;;;0.60;0.60;;;;;;;9.68;100.00;100291.94;5006350;28;20739;-73
2024/02/05 03:24:40;;;;;;;1.33;0.60;;;;;;;9.67;100.00;100288.53;5009591;28;21178;-73
2024/02/05 03:27:06;;;;;;;0.60;0.60;;;;;;;9.66;100.00;100305.44;5007632;28;20314;-73
2024/02/05 03:29:33;;;;;;;0.87;0.83;;;;;;;9.69;100.00;100290.84;5007056;28;20299;-73
2024/02/05 03:32:01;;;;;;;1.00;1.00;;;;;;;9.68;100.00;100313.03;5009810;28;20764;-72
2024/02/05 03:34:28;;;;;;;0.70;0.70;;;;;;;9.70;100.00;100302.91;5004568;28;20208;-73
2024/02/05 03:36:54;;;;;;;0.70;0.70;;;;;;;9.70;100.00;100303.69;5011499;28;20224;-73
2024/02/05 03:39:21;;;;;;;0.67;0.53;;;;;;;9.70;100.00;100302.91;5008322;28;20211;-73
2024/02/05 03:41:47;;;;;;;0.80;0.80;;;;;;;9.68;100.00;100303.25;5007000;28;20684;-73
2024/02/05 03:44:13;;;;;;;0.83;0.83;;;;;;;9.70;100.00;100306.34;5021072;28;20236;-73
2024/02/05 03:46:41;;;;;;;0.60;0.60;;;;;;;9.70;100.00;100319.53;5011614;28;20220;-72
2024/02/05 03:49:09;;;;;;;0.90;0.90;;;;;;;9.71;100.00;100315.78;5008303;28;20233;-72
2024/02/05 03:51:35;;;;;;;0.70;0.70;;;;;;;9.72;100.00;100319.16;5007774;28;20699;-73
2024/02/05 03:54:04;;;;;;;0.60;0.60;;;;;;;9.72;100.00;100311.25;5022324;28;20240;-73
2024/02/05 03:56:31;;;;;;;0.90;0.90;;;;;;;9.70;100.00;100318.75;5007508;28;20268;-73
2024/02/05 04:02:45;;;;;;;0.80;0.80;;;;;;;9.73;100.00;100329.41;5006536;28;20272;-73
2024/02/05 04:05:12;;;;;;;0.60;0.60;;;;;;;9.73;100.00;100318.09;5022573;28;20691;-73
2024/02/05 04:07:39;;;;;;;0.70;0.70;;;;;;;9.73;100.00;100320.75;5007575;28;20220;-73
2024/02/05 04:10:06;;;;;;;0.60;0.60;;;;;;;9.73;100.00;100334.66;5008903;28;20204;-72
2024/02/05 04:12:33;;;;;;;0.83;0.80;;;;;;;9.75;100.00;100314.03;5009967;28;20201;-72
2024/02/05 04:14:59;;;;;;;0.70;0.70;;;;;;;9.77;100.00;100332.94;5014972;28;20196;-72
2024/02/05 04:17:26;;;;;;;0.60;0.60;;;;;;;9.77;100.00;100332.16;5023018;28;20227;-72
2024/02/05 04:19:53;;;;;;;0.80;0.80;;;;;;;9.79;100.00;100330.72;5035255;28;20220;-73
2024/02/05 04:22:20;;;;;;;0.80;0.80;;;;;;;9.80;100.00;100337.56;5018481;28;20193;-72
2024/02/05 04:24:50;;;;;;;0.60;0.60;;;;;;;9.82;100.00;100334.59;5024258;28;20243;-72
2024/02/05 04:27:16;;;;;;;0.73;0.73;;;;;;;9.82;100.00;100326.66;5020700;28;20218;-71
2024/02/05 04:29:42;;;;;;;0.80;0.80;;;;;;;9.82;100.00;100331.94;5025751;28;20276;-72
2024/02/05 04:35:56;;;;;;;0.70;0.70;;;;;;;9.83;100.00;100339.53;5023956;28;20238;-73
2024/02/05 04:38:24;;;;;;;0.90;0.90;;;;;;;9.86;100.00;100340.75;5019492;28;20909;-73
2024/02/05 04:40:50;;;;;;;0.83;0.83;;;;;;;9.87;100.00;100343.06;5024493;28;20197;-72
2024/02/05 04:43:17;;;;;;;1.47;1.00;;;;;;;9.88;100.00;100341.22;5027233;28;20252;-73
2024/02/05 04:45:43;;;;;;;0.80;0.80;;;;;;;9.87;100.00;100350.19;5024770;28;20193;-72
2024/02/05 04:48:10;;;;;;;1.13;1.10;;;;;;;9.88;100.00;100347.25;5025636;28;20198;-73
2024/02/05 04:50:36;;;;;;;1.63;0.90;;;;;;;9.88;100.00;100347.25;5018184;28;20204;-73
2024/02/05 04:53:02;;;;;;;2.10;0.93;;;;;;;9.90;100.00;100352.19;5009691;28;20205;-73
2024/02/05 04:55:30;;;;;;;1.17;1.10;;;;;;;9.91;100.00;100343.19;5008036;28;20212;-73
2024/02/05 04:57:57;;;;;;;0.90;0.90;;;;;;;9.91;100.00;100351.09;5007470;28;20208;-73
2024/02/05 05:00:23;;;;;;;1.20;1.10;;;;;;;9.92;100.00;100353.41;5007879;28;20196;-73
2024/02/05 05:02:49;;;;;;;1.03;0.97;;;;;;;9.96;100.00;100374.63;5004474;28;20213;-73
2024/02/05 05:05:16;;;;;;;1.23;0.80;;;;;;;9.96;100.00;100367.50;5008499;28;20212;-73
2024/02/05 05:07:42;;;;;;;1.10;1.00;;;;;;;9.96;100.00;100367.50;5024230;28;20221;-73
2024/02/05 05:10:09;;;;;;;1.63;1.10;;;;;;;9.96;100.00;100364.88;5004009;28;20676;-73
2024/02/05 05:12:36;;;;;;;0.80;0.80;;;;;;;9.96;100.00;100370.13;5008006;28;20197;-74
2024/02/05 05:15:03;;;;;;;1.00;1.00;;;;;;;9.99;100.00;100374.00;5007359;28;20211;-72
2024/02/05 05:17:30;;;;;;;1.00;1.00;;;;;;;9.99;100.00;100366.81;5007058;28;20227;-73
2024/02/05 05:19:56;;;;;;;1.07;1.00;;;;;;;9.99;100.00;100381.91;5024055;28;20691;-73
2024/02/05 05:22:23;;;;;;;1.60;0.90;;;;;;;9.99;100.00;100379.25;5007564;28;20259;-73
2024/02/05 05:24:49;;;;;;;1.00;0.90;;;;;;;9.99;100.00;100380.03;5006196;28;20224;-74
2024/02/05 05:27:15;;;;;;;0.80;0.80;;;;;;;9.99;100.00;100387.94;5008585;28;20229;-74
2024/02/05 05:29:43;;;;;;;2.40;1.20;;;;;;;9.99;100.00;100384.53;5006454;28;20200;-74
2024/02/05 05:32:09;;;;;;;1.20;1.10;;;;;;;9.99;100.00;100381.91;5006331;28;20209;-73
2024/02/05 05:34:36;;;;;;;1.23;1.10;;;;;;;9.99;100.00;100374.75;5006703;28;20202;-73
2024/02/05 05:37:03;;;;;;;0.80;0.80;;;;;;;9.99;100.00;100376.63;5005635;28;20217;-73
2024/02/05 05:39:29;;;;;;;1.10;1.00;;;;;;;9.99;100.00;100374.75;5006300;28;20224;-72
2024/02/05 05:41:56;;;;;;;1.40;1.30;;;;;;;9.98;100.00;100386.41;5003979;28;20216;-73
2024/02/05 05:44:22;;;;;;;1.10;1.00;;;;;;;9.98;100.00;100391.66;5000810;28;20662;-73
2024/02/05 05:46:53;;;;;;;1.00;1.00;;;;;;;9.98;100.00;100383.75;5006231;28;20216;-72
2024/02/05 05:49:19;;;;;;;1.13;1.03;;;;;;;9.98;100.00;100394.31;5009271;28;20193;-73
2024/02/05 05:51:46;;;;;;;3.03;1.20;;;;;;;9.99;100.00;100379.25;5005206;28;20208;-74
2024/02/05 05:54:12;;;;;;;4.13;1.03;;;;;;;9.97;100.00;100392.78;5007877;28;20201;-74
2024/02/05 05:56:39;;;;;;;1.33;0.93;;;;;;;9.97;100.00;100379.59;5005052;28;20231;-73
2024/02/05 05:59:05;;;;;;;1.03;0.83;;;;;;;9.97;100.00;100395.41;5005933;28;20216;-74
2024/02/05 06:01:35;;;;;;;1.73;0.90;;;;;;;9.97;100.00;100387.50;5003991;28;20287;-74
2024/02/05 06:04:03;;;;;;;1.03;0.93;;;;;;;9.98;100.00;100385.63;5005296;28;20216;-73
2024/02/05 06:06:29;;;;;;;0.97;0.97;;;;;;;9.97;100.00;100394.63;5001003;28;20217;-73
2024/02/05 06:08:55;;;;;;;0.97;0.97;;;;;;;9.97;100.00;100399.91;5004839;28;20686;-73
2024/02/05 06:11:22;;;;;;;1.73;1.00;;;;;;;9.98;100.00;100406.72;5004831;28;20567;-73
2024/02/05 06:13:49;;;;;;;0.70;0.70;;;;;;;9.97;100.00;100379.59;5007516;28;20203;-73
2024/02/05 06:16:17;;;;;;;0.90;0.90;;;;;;;9.97;100.00;100394.63;5010388;28;20235;-73
2024/02/05 06:18:43;;;;;;;0.70;0.70;;;;;;;9.97;100.00;100405.97;5003330;28;20280;-73
2024/02/05 06:21:11;;;;;;;1.40;0.80;;;;;;;9.97;100.00;100407.81;5002486;28;20205;-74
2024/02/05 06:23:37;;;;;;;3.30;0.80;;;;;;;9.97;100.00;100403.31;5005220;28;20205;-74
2024/02/05 06:26:05;;;;;;;0.80;0.80;;;;;;;9.96;100.00;100399.16;5030938;28;20711;-74
2024/02/05 06:28:32;;;;;;;0.70;0.70;;;;;;;9.97;100.00;100398.06;5006383;28;20193;-74
2024/02/05 06:30:58;;;;;;;0.90;0.90;;;;;;;9.96;100.00;100417.63;5002327;28;20296;-74
2024/02/05 06:33:24;;;;;;;0.70;0.70;;;;;;;9.97;100.00;100421.00;5004095;28;20196;-74
2024/02/05 06:35:51;;;;;;;0.70;0.70;;;;;;;9.97;100.00;100405.97;5005683;28;20812;-74
2024/02/05 06:38:18;;;;;;;1.83;0.90;;;;;;;9.97;100.00;100408.59;5004887;28;20201;-74
2024/02/05 06:40:45;;;;;;;1.40;0.90;;;;;;;10.00;100.00;100404.53;5003018;28;20207;-74
2024/02/05 06:43:11;;;;;;;1.13;0.80;;;;;;;10.01;100.00;100408.72;5002483;28;20289;-73
2024/02/05 06:45:38;;;;;;;1.80;0.87;;;;;;;10.00;100.00;100410.56;5004584;28;20336;-74
2024/02/05 06:48:05;;;;;;;0.80;0.80;;;;;;;9.99;100.00;100406.41;5003612;28;20283;-73
2024/02/05 06:50:31;;;;;;;6.80;0.90;;;;;;;10.01;100.00;100419.28;5006990;28;20224;-73
2024/02/05 06:52:58;;;;;;;1.43;1.17;;;;;;;10.01;100.00;100425.31;5010110;28;20215;-73
2024/02/05 06:55:25;;;;;;;2.40;1.00;;;;;;;10.01;100.00;100416.63;5003195;28;20720;-73
2024/02/05 06:57:52;;;;;;;1.10;1.00;;;;;;;10.01;100.00;100408.72;5008213;28;20232;-73
2024/02/05 07:00:18;;;;;;;2.10;1.13;;;;;;;10.03;100.00;100438.16;5005504;28;20216;-72
2024/02/05 07:02:45;;;;;;;4.47;1.13;;;;;;;10.03;100.00;100438.94;5000888;28;20192;-73
2024/02/05 07:05:14;;;;;;;4.40;1.40;;;;;;;10.04;100.00;100445.03;5007037;28;20213;-72
2024/02/05 07:07:40;;;;;;;1.40;1.30;;;;;;;10.04;100.00;100427.31;5009620;28;20646;-73
2024/02/05 07:10:07;;;;;;;3.37;1.63;;;;;;;10.08;100.00;100432.72;5005656;28;20209;-73
2024/02/05 07:12:35;;;;;;;2.37;1.50;;;;;;;10.08;100.00;100444.06;5007809;28;20193;-73
2024/02/05 07:15:01;;;;;;;2.63;1.70;;;;;;;10.08;100.00;100454.59;5009677;28;20200;-73
2024/02/05 07:17:31;;;;;;;3.10;1.70;;;;;;;10.07;100.00;100455.72;5009352;28;20452;-73
2024/02/05 07:19:59;;;;;;;2.53;1.63;;;;;;;10.07;100.00;100449.66;5008185;28;20283;-73
2024/02/05 07:22:26;;;;;;;1.50;1.40;;;;;;;10.09;100.00;100464.06;5006443;28;20576;-73
2024/02/05 07:24:52;;;;;;;1.60;1.50;;;;;;;10.09;100.00;100458.78;5006505;28;20221;-73
2024/02/05 07:27:21;;;;;;;2.20;1.93;;;;;;;10.08;100.00;100457.25;5008035;28;20606;-73
2024/02/05 07:29:48;;;;;;;1.70;1.60;;;;;;;10.08;100.00;100454.59;5023677;28;20215;-73
2024/02/05 07:32:15;;;;;;;2.00;1.80;;;;;;;10.09;100.00;100450.13;5008086;28;20201;-73
2024/02/05 07:34:41;;;;;;;4.83;2.10;;;;;;;10.05;100.00;100460.53;5025799;28;20201;-73
2024/02/05 07:37:07;;;;;;;8.67;2.40;;;;;;;10.06;100.00;100463.94;5008811;28;20230;-73
2024/02/05 07:39:34;;;;;;;5.47;2.50;;;;;;;10.03;100.00;100470.59;5006655;28;20382;-73
2024/02/05 07:42:01;;;;;;;4.10;2.17;;;;;;;10.01;100.00;100475.44;5005525;28;20551;-73
2024/02/05 07:44:27;;;;;;;3.07;1.53;;;;;;;9.99;100.00;100471.59;5009006;28;20628;-73
2024/02/05 07:46:55;;;;;;;4.37;1.90;;;;;;;9.99;100.00;100477.63;5008085;28;20742;-73
2024/02/05 07:49:22;;;;;;;2.27;2.07;;;;;;;9.95;100.00;100474.06;5007672;28;20196;-73
2024/02/05 07:51:49;;;;;;;2.37;1.90;;;;;;;9.96;100.00;100477.50;5007622;28;20754;-73
2024/02/05 07:54:16;;;;;;;3.83;1.70;;;;;;;9.95;100.00;100484.63;5007630;28;20560;-73
2024/02/05 07:56:43;;;;;;;2.77;1.93;;;;;;;9.95;100.00;100492.53;5005163;28;20698;-73
2024/02/05 07:59:10;;;;;;;1.80;1.70;;;;;;;9.92;100.00;100480.00;5008431;28;20208;-73
2024/02/05 08:01:36;;;;;;;3.53;1.57;;;;;;;9.93;100.00;100483.44;5007361;28;20302;-73
2024/02/05 08:04:04;;;;;;;1.63;1.50;;;;;;;9.91;100.00;100486.38;5009675;28;20208;-73
2024/02/05 08:06:32;;;;;;;2.00;1.50;;;;;;;9.91;100.00;100494.31;5004816;28;20228;-73
2024/02/05 08:08:59;;;;;;;2.43;1.70;;;;;;;9.89;100.00;100495.72;5010369;28;20297;-73
2024/02/05 08:11:25;;;;;;;3.13;1.27;;;;;;;9.89;100.00;100493.84;5008622;28;20211;-73
2024/02/05 08:13:52;;;;;;;1.63;1.50;;;;;;;9.90;100.00;100484.84;5007567;28;20603;-73
2024/02/05 08:16:18;;;;;;;5.17;3.57;;;;;;;9.90;100.00;100486.69;5008554;28;20256;-73
2024/02/05 08:18:44;;;;;;;2.47;2.10;;;;;;;9.89;100.00;100498.34;5005707;28;20684;-73
2024/02/05 08:21:11;;;;;;;2.60;2.13;;;;;;;9.90;100.00;100498.03;5009456;28;20200;-72
2024/02/05 08:23:38;;;;;;;2.17;1.80;;;;;;;9.90;100.00;100484.06;5023333;28;20208;-73
2024/02/05 08:26:04;;;;;;;2.70;1.60;;;;;;;9.88;100.00;100481.75;5008413;28;20224;-73
2024/02/05 08:28:31;;;;;;;2.07;1.50;;;;;;;9.90;100.00;100494.63;5005788;28;20227;-73
2024/02/05 08:30:57;;;;;;;1.20;1.10;;;;;;;9.89;100.00;100485.16;5008319;28;20214;-73
2024/02/05 08:33:24;;;;;;;5.17;1.50;;;;;;;9.89;100.00;100487.81;5005907;28;20196;-73
2024/02/05 08:35:51;;;;;;;2.13;1.57;;;;;;;9.89;100.00;100490.44;5006576;28;20294;-73
2024/02/05 08:38:19;;;;;;;1.57;1.47;;;;;;;9.89;100.00;100488.56;5006893;28;20303;-73
2024/02/05 08:40:47;;;;;;;2.20;1.30;;;;;;;9.90;100.00;100505.16;5000041;28;20474;-73
2024/02/05 08:43:13;;;;;;;2.37;1.37;;;;;;;9.88;100.00;100491.53;5003457;28;20204;-73
2024/02/05 08:45:39;;;;;;;1.00;0.90;;;;;;;9.89;100.00;100485.91;5002587;28;20233;-72
2024/02/05 08:48:07;;;;;;;1.47;1.10;;;;;;;9.89;100.00;100493.84;5001386;28;20196;-73
2024/02/05 08:50:35;;;;;;;2.43;1.20;;;;;;;9.91;100.00;100490.88;5004363;28;20312;-73
2024/02/05 08:53:02;;;;;;;2.03;1.20;;;;;;;9.91;100.00;100493.50;5032254;28;20218;-73
2024/02/05 08:55:30;;;;;;;1.23;1.10;;;;;;;9.91;100.00;100489.03;5004062;28;20199;-73
2024/02/05 08:57:57;;;;;;;1.20;1.10;;;;;;;9.92;100.00;100500.34;5004518;28;20650;-73
2024/02/05 09:00:23;;;;;;;2.77;1.93;;;;;;;9.92;100.00;100502.97;5009660;28;20665;-73
2024/02/05 09:02:52;;;;;;;1.17;1.10;;;;;;;9.93;100.00;100515.09;5003382;28;20208;-73
2024/02/05 09:05:18;;;;;;;1.40;1.30;;;;;;;9.92;100.00;100498.47;5005714;28;20223;-73
2024/02/05 09:07:45;;;;;;;2.47;1.47;;;;;;;9.93;100.00;100515.84;5005201;28;20227;-73
2024/02/05 09:10:11;;;;;;;2.37;1.30;;;;;;;9.93;100.00;100504.53;5006345;28;20228;-72
2024/02/05 09:12:39;;;;;;;3.03;1.70;;;;;;;9.93;100.00;100499.25;5004805;28;20204;-73
2024/02/05 09:15:06;;;;;;;2.30;2.03;;;;;;;9.94;100.00;100500.78;5005549;28;20197;-73
2024/02/05 09:17:32;;;;;;;2.00;1.80;;;;;;;9.95;100.00;100515.53;5000827;28;20620;-73
2024/02/05 09:19:59;;;;;;;3.63;1.60;;;;;;;9.95;100.00;100524.19;5003577;28;20228;-73
2024/02/05 09:22:25;;;;;;;3.67;2.00;;;;;;;9.94;100.00;100522.66;5005737;28;20200;-73
2024/02/05 09:24:51;;;;;;;1.77;1.60;;;;;;;9.93;100.00;100521.13;5006902;28;20699;-73
2024/02/05 09:27:19;;;;;;;2.47;2.23;;;;;;;9.92;100.00;100529.34;5007099;28;20217;-73
2024/02/05 09:29:46;;;;;;;2.97;2.03;;;;;;;9.92;100.00;100519.56;5002818;28;20200;-72
2024/02/05 09:32:13;;;;;;;2.77;1.60;;;;;;;9.92;100.00;100526.69;5017480;28;20667;-72
2024/02/05 09:34:39;;;;;;;2.87;2.13;;;;;;;9.93;100.00;100520.38;5003039;28;20220;-73
2024/02/05 09:37:06;;;;;;;4.47;3.20;;;;;;;9.92;100.00;100524.84;5002507;28;20216;-73
2024/02/05 09:39:32;;;;;;;7.10;5.43;;;;;;;9.91;100.00;100527.81;5002761;28;20197;-73
2024/02/05 09:42:01;;;;;;;13.97;9.17;;;;;;;9.91;100.00;100518.03;5002286;28;20205;-73
2024/02/05 09:44:29;;;;;;;31.03;16.70;;;;;;;9.91;100.00;100517.25;5002049;28;20215;-73
2024/02/05 09:46:57;;;;;;;7.13;4.47;;;;;;;9.90;100.00;100518.34;5004545;28;20658;-73
2024/02/05 09:49:23;;;;;;;7.20;5.13;;;;;;;9.89;100.00;100522.09;5001271;28;20200;-74
2024/02/05 09:51:50;;;;;;;9.80;4.60;;;;;;;9.90;100.00;100521.00;4998314;28;20284;-73
2024/02/05 09:54:16;;;;;;;8.17;4.40;;;;;;;9.90;100.00;100524.41;5003397;28;20205;-73
2024/02/05 09:56:43;;;;;;;5.83;3.50;;;;;;;9.92;100.00;100516.16;5004433;28;20213;-73
2024/02/05 09:59:10;;;;;;;6.57;5.33;;;;;;;9.94;100.00;100530.56;5004814;28;20298;-73
2024/02/05 10:01:38;;;;;;;9.20;5.07;;;;;;;9.93;100.00;100523.75;5006485;28;20788;-73
2024/02/05 10:04:08;;;;;;;11.43;5.33;;;;;;;9.96;100.00;100525.75;5004090;28;20201;-73
2024/02/05 10:06:39;;;;;;;9.63;7.33;;;;;;;10.01;100.00;100525.56;5006120;28;20580;-73
2024/02/05 10:09:07;;;;;;;9.63;4.47;;;;;;;10.05;100.00;100523.84;5020364;28;20216;-73
2024/02/05 10:11:35;;;;;;;6.83;3.57;;;;;;;10.12;100.00;100528.59;5006767;28;20200;-73
2024/02/05 10:14:01;;;;;;;13.17;4.37;;;;;;;10.16;100.00;100543.47;5004683;28;20455;-73
2024/02/05 10:16:28;;;;;;;8.87;4.00;;;;;;;10.24;100.00;100539.22;5006733;28;20265;-73
2024/02/05 10:18:54;;;;;;;8.97;3.70;;;;;;;10.28;100.00;100519.78;5005010;28;20691;-73
2024/02/05 10:21:22;;;;;;;7.40;3.90;;;;;;;10.32;100.00;100527.81;5005100;28;20292;-73
2024/02/05 10:23:52;;;;;;;8.07;4.00;;;;;;;10.36;100.00;100534.00;5003995;28;20213;-73
2024/02/05 10:26:19;;;;;;;11.73;4.47;;;;;;;10.40;100.00;100526.97;5008215;28;20252;-73
2024/02/05 10:28:45;;;;;;;7.73;4.37;;;;;;;10.42;100.00;100538.75;5008019;28;20284;-74
2024/02/05 10:31:12;;;;;;;9.00;5.40;;;;;;;10.46;100.00;100547.53;5008758;28;20658;-74
2024/02/05 10:33:39;;;;;;;10.17;5.00;;;;;;;10.48;100.00;100553.28;5006785;28;20629;-73
2024/02/05 10:36:06;;;;;;;11.63;4.77;;;;;;;10.54;100.00;100522.16;5011708;28;20697;-73
2024/02/05 10:38:38;;;;;;;11.40;5.53;;;;;;;10.58;100.00;100530.97;5011731;28;20200;-73
2024/02/05 10:41:05;;;;;;;10.63;4.30;;;;;;;10.62;100.00;100527.34;5005889;28;20209;-73
2024/02/05 10:43:31;;;;;;;10.87;4.40;;;;;;;10.67;100.00;100536.94;5009962;28;20696;-73
2024/02/05 10:45:58;;;;;;;7.63;3.60;;;;;;;10.72;100.00;100550.69;5011554;28;20227;-73
2024/02/05 10:48:25;;;;;;;7.33;3.77;;;;;;;10.77;100.00;100542.56;5010302;28;20210;-73
2024/02/05 10:50:51;;;;;;;7.23;3.23;;;;;;;10.81;100.00;100537.44;5027463;28;20691;-73
2024/02/05 10:53:18;;;;;;;6.83;3.20;;;;;;;10.84;100.00;100529.63;5009799;28;20203;-73
2024/02/05 10:55:46;;;;;;;8.20;2.97;;;;;;;10.84;100.00;100548.09;5008871;28;20911;-74
2024/02/05 10:58:13;;;;;;;5.80;2.70;;;;;;;10.88;100.00;100529.72;5008562;28;20206;-74
2024/02/05 11:00:40;;;;;;;8.13;3.30;;;;;;;10.83;100.00;100543.94;5004748;28;20246;-73
2024/02/05 11:03:08;;;;;;;6.77;3.50;;;;;;;10.83;100.00;100537.88;5007548;28;20782;-73
2024/02/05 11:05:36;;;;;;;7.33;3.03;;;;;;;10.82;100.00;100568.78;5008753;28;20233;-73
2024/02/05 11:08:06;;;;;;;7.07;3.33;;;;;;;10.81;100.00;100534.78;5009712;28;20206;-73
2024/02/05 11:10:33;;;;;;;9.43;2.93;;;;;;;10.79;100.00;100566.81;5009108;28;20227;-73
2024/02/05 11:13:04;;;;;;;10.37;3.33;;;;;;;10.76;100.00;100548.97;5005854;28;20213;-73
2024/02/05 11:15:34;;;;;;;9.00;3.27;;;;;;;10.74;100.00;100542.47;5007258;28;20229;-73
2024/02/05 11:18:09;;;;;;;7.57;2.87;;;;;;;10.70;100.00;100528.34;5007909;28;20218;-74
2024/02/05 11:20:38;;;;;;;9.33;3.53;;;;;;;10.69;100.00;100521.53;5009554;28;20206;-72
2024/02/05 11:23:05;;;;;;;6.27;2.50;;;;;;;10.67;100.00;100535.06;5009099;28;20205;-73
2024/02/05 11:25:32;;;;;;;8.70;3.60;;;;;;;10.64;100.00;100551.56;5008465;28;20198;-73
2024/02/05 11:27:59;;;;;;;8.43;2.93;;;;;;;10.62;100.00;100532.63;5009608;28;20228;-72
2024/02/05 11:30:30;;;;;;;8.77;3.20;;;;;;;10.62;100.00;100537.16;5004555;28;20336;-73